Main page
METAR-TAF:

METAR-TAF

Airports :

Kerman, Iran

Kerman Airport

latitude: 30-15N, longitude: 056-58E, elevation: 1748 m

Current weather observation

The report was made 1 hour and 13 minutes ago, at 16:00 UTC
Wind 16 kt from the East/Northeast
Temperature 30°C
Humidity 9%
Pressure 1017 hPa
Visibility 10 km or more
Few clouds at a height of 4000 ft

METAR: OIKK 261600Z 06016KT 9999 FEW040 30/M06 Q1016 A3002

Time: 21:43 (17:13 UTC)

Forecast

The report was made 6 hours and 13 minutes ago, at 11:00 UTC
Forecast valid from 26 at 12 UTC to 27 at 18 UTC
Wind 10 kt from the Northeast
Visibility 10 km or more
no clouds below 1500 m and no cumulonimbus
Temporary
from 26 at 12 UTC to 26 at 16 UTC
Wind 16 kt from the Northeast
Visibility: 8000 m
Few clouds at a height of 3500 ft, Towering cumulus.
Temporary
from 27 at 09 UTC to 27 at 18 UTC
Wind 16 kt from the Northeast

TAF: OIKK 261100Z 2612/2718 04005MPS CAVOK TEMPO 2612/2616 04008MPS 8000 FEW035TCU TEMPO 2709/2718 04008MPS

Weather observations and forecasts of more than 4000 airports (METAR and TAF reports).

The available stations are represented by yellow and red dots on the map.

Hover mouse over dot to see the name of the station.

Then click to see weather observations and forecasts.

To change the map : click on the green buttons with a black cross to zoom in, on the green button with a dash to zoom out, or on the green arrows for adjacent maps.


METAR-TAF: